Fairmont, WV (26554)

12:54 AM EDT on June 30, 2015 (GMT -0400)
N8TJD's WX Station. Stony Rd/Pinchgut Hollow. | | Change Station
CLOSE
Current Station
Personal Weather Station
Location: Fairmont, WV
Elevation: 1283 ft
Nearby Weather Stations

Elev 1283 ft 39.46 °N, 80.12 °W | Updated 23 seconds ago

Rain
Rain
67.0 °F
Feels Like 67.0 °F
N
0.0
Wind Variable Wind from NW
Gusts 0.0 mph

Today
High -- | Low -- °F
--% Chance of Precip.
Yesterday
High -- | Low -- °F
Precip. -- in
5:56 AM 8:51 PM
Waxing Gibbous, 96% visible
Pressure 29.86 in
Visibility 5.0 miles
Clouds Few 5000 ft
Scattered Clouds 6500 ft
Overcast 8000 ft
Dew Point 67 °F
Humidity 100%
Rainfall in
Snow Depth Not available.
UV 0 out of 12
Pollen 3.30 out of 12
Air Quality Not available.
Flu Activity Sporadic
METAR KCKB 300353Z AUTO 00000KT 5SM -RA BR FEW050 SCT065 OVC080 19/17 A2990 RMK AO2 RAE0254B44 SLP110 P0000 T01890172 TSNO

More Conditions Fewer Conditions

Pressure 29.86 in
Visibility 5.0 miles
Clouds Few 5000 ft
Scattered Clouds 6500 ft
Overcast 8000 ft
Dew Point 67 °F
Humidity 100%
Rainfall in
Snow Depth Not available.
UV 0 out of 12
Pollen 3.30 out of 12
Air Quality Not available.
Flu Activity Sporadic
METAR KCKB 300353Z AUTO 00000KT 5SM -RA BR FEW050 SCT065 OVC080 19/17 A2990 RMK AO2 RAE0254B44 SLP110 P0000 T01890172 TSNO

More Conditions Fewer Conditions

10-Day Weather Forecast

×

Almanac

Astronomy

Jun. 30, 2015 Rise Set
Actual Time
Civil Twilight
Nautical Twilight
Astronomical Twilight
Moon
Length of Visible Light
Length of Day
Tomorrow will be .
, % of the Moon is Illuminated

Today's Extremes

State Highs State Lows

Community

WunderPhotos

Upload Photos

1,833,965 photos uploaded!

WunderBlogs® & News

Nearby

Air Quality

  Air Quality AQ Index Pollutant
Not available.

Snow Depth

Station Depth Elevation

Earthquake Activity

City Distance Mag. Time & Date
Minimum magnitude displayed is 2.5.

Coastal Water Temperatures

Place Temperature

Stations

Nearby Weather Stations

Station Location Temp. Windchill Dew Point Humidity Wind Precip. Elev Updated Type